createdAt,value
2018-11-03T00:00:02.691Z,1.37
2018-11-03T00:02:31.828Z,1.40
2018-11-03T00:05:00.696Z,1.27
2018-11-03T00:07:29.611Z,1.10
2018-11-03T00:09:58.391Z,1.23
2018-11-03T00:12:28.035Z,1.40
2018-11-03T00:14:56.873Z,1.43
2018-11-03T00:17:25.712Z,1.40
2018-11-03T00:19:54.566Z,1.30
2018-11-03T00:22:23.482Z,1.33
2018-11-03T00:24:52.391Z,1.10
2018-11-03T00:27:21.255Z,1.50
2018-11-03T00:29:50.132Z,1.20
2018-11-03T00:32:18.981Z,1.50
2018-11-03T00:34:48.512Z,1.00
2018-11-03T00:37:19.055Z,1.30
2018-11-03T00:39:48.537Z,1.30
2018-11-03T00:42:17.379Z,1.37
2018-11-03T00:44:46.261Z,1.10
2018-11-03T00:47:15.161Z,1.30
2018-11-03T00:49:43.994Z,1.30
2018-11-03T00:52:12.890Z,1.20
2018-11-03T00:54:41.758Z,1.30
2018-11-03T00:57:10.602Z,1.30
2018-11-03T00:59:39.435Z,1.20
2018-11-03T01:02:08.786Z,1.27
2018-11-03T01:04:38.236Z,1.20
2018-11-03T01:07:07.204Z,1.20
2018-11-03T01:09:36.107Z,1.10
2018-11-03T01:12:06.370Z,1.30
2018-11-03T01:14:35.402Z,1.30
2018-11-03T01:17:04.236Z,1.30
2018-11-03T01:19:33.086Z,1.07
2018-11-03T01:22:01.958Z,1.40
2018-11-03T01:24:30.855Z,1.30
2018-11-03T01:26:59.687Z,1.23
2018-11-03T01:29:28.523Z,1.33
2018-11-03T01:31:59.784Z,1.30
2018-11-03T01:34:28.627Z,1.17
2018-11-03T01:36:57.572Z,1.10
2018-11-03T01:39:27.056Z,1.20
2018-11-03T01:41:55.895Z,1.30
2018-11-03T01:44:24.748Z,1.00
2018-11-03T01:46:53.615Z,1.40
2018-11-03T01:49:22.464Z,1.30
2018-11-03T01:51:51.463Z,1.47
2018-11-03T01:54:20.315Z,1.30
2018-11-03T01:56:49.139Z,1.10
2018-11-03T01:59:17.991Z,1.20
2018-11-03T02:01:47.277Z,1.50
2018-11-03T02:04:16.490Z,1.20
2018-11-03T02:06:45.327Z,1.30
2018-11-03T02:09:14.271Z,1.30
2018-11-03T02:11:43.119Z,1.17
2018-11-03T02:14:12.849Z,1.17
2018-11-03T02:16:41.698Z,1.37
2018-11-03T02:19:10.539Z,1.03
2018-11-03T02:21:39.389Z,1.00
2018-11-03T02:24:10.016Z,1.10
2018-11-03T02:26:38.911Z,1.10
2018-11-03T02:29:07.752Z,1.50
2018-11-03T02:31:36.612Z,1.40
2018-11-03T02:34:05.627Z,1.07
2018-11-03T02:36:34.498Z,1.40
2018-11-03T02:39:07.590Z,1.10
2018-11-03T02:41:36.480Z,1.10
2018-11-03T02:44:05.438Z,1.43
2018-11-03T02:46:34.279Z,1.27
2018-11-03T02:49:03.108Z,1.00
2018-11-03T02:51:32.079Z,1.30
2018-11-03T02:54:01.006Z,1.33
2018-11-03T02:56:29.827Z,1.27
2018-11-03T02:58:58.692Z,1.33
2018-11-03T03:01:27.821Z,1.30
2018-11-03T03:03:57.040Z,1.07
2018-11-03T03:06:25.884Z,1.53
2018-11-03T03:08:54.735Z,1.03
2018-11-03T03:11:23.547Z,1.40
2018-11-03T03:13:52.803Z,1.20
2018-11-03T03:16:23.207Z,1.20
2018-11-03T03:18:52.058Z,1.03
2018-11-03T03:21:20.899Z,1.30
2018-11-03T03:23:49.740Z,1.50
2018-11-03T03:26:18.572Z,1.30
2018-11-03T03:28:47.447Z,1.43
2018-11-03T03:31:18.403Z,1.40
2018-11-03T03:33:47.231Z,1.40
2018-11-03T03:36:16.063Z,1.37
2018-11-03T03:38:44.903Z,1.50
2018-11-03T03:41:13.767Z,1.30
2018-11-03T03:43:42.627Z,1.50
2018-11-03T03:46:11.469Z,1.30
2018-11-03T03:48:40.931Z,1.30
2018-11-03T03:51:09.754Z,1.23
2018-11-03T03:53:38.611Z,1.50
2018-11-03T03:56:08.039Z,1.10
2018-11-03T03:58:36.871Z,1.60
2018-11-03T04:01:05.821Z,1.40
2018-11-03T04:03:34.643Z,1.20
2018-11-03T04:06:03.487Z,1.10
2018-11-03T04:08:32.400Z,1.47
2018-11-03T04:11:03.716Z,1.37
2018-11-03T04:13:33.555Z,1.30
2018-11-03T04:16:02.422Z,1.30
2018-11-03T04:18:31.268Z,1.17
2018-11-03T04:21:00.127Z,1.37
2018-11-03T04:23:28.971Z,1.30
2018-11-03T04:25:57.959Z,1.30
2018-11-03T04:28:28.629Z,1.30
2018-11-03T04:30:57.455Z,1.50
2018-11-03T04:33:26.300Z,1.30
2018-11-03T04:35:55.140Z,1.40
2018-11-03T04:38:23.969Z,1.70
2018-11-03T04:40:52.891Z,1.47
2018-11-03T04:43:21.735Z,1.67
2018-11-03T04:45:50.572Z,1.40
2018-11-03T04:48:19.420Z,1.50
2018-11-03T04:50:48.419Z,1.40
2018-11-03T04:53:18.127Z,1.50
2018-11-03T04:55:46.951Z,1.40
2018-11-03T04:58:15.834Z,1.50
2018-11-03T05:00:44.707Z,1.70
2018-11-03T05:03:14.927Z,1.43
2018-11-03T05:05:43.827Z,1.57
2018-11-03T05:08:12.813Z,1.23
2018-11-03T05:10:41.611Z,1.60
2018-11-03T05:13:11.407Z,1.30
2018-11-03T05:15:40.236Z,1.50
2018-11-03T05:18:09.062Z,1.50
2018-11-03T05:20:38.219Z,1.57
2018-11-03T05:23:07.072Z,1.40
2018-11-03T05:25:37.504Z,1.60
2018-11-03T05:28:06.332Z,1.40
2018-11-03T05:30:35.140Z,1.37
2018-11-03T05:33:03.990Z,1.30
2018-11-03T05:35:32.823Z,1.33
2018-11-03T05:38:01.750Z,1.20
2018-11-03T05:40:30.622Z,1.67
2018-11-03T05:42:59.532Z,1.40
2018-11-03T05:45:28.330Z,1.30
2018-11-03T05:47:57.615Z,1.80
2018-11-03T05:50:27.200Z,1.60
2018-11-03T05:52:56.026Z,1.53
2018-11-03T05:55:24.900Z,1.50
2018-11-03T05:57:55.022Z,1.30
2018-11-03T06:00:26.491Z,1.30
2018-11-03T06:02:56.615Z,1.50
2018-11-03T06:05:25.599Z,1.40
2018-11-03T06:07:54.797Z,1.50
2018-11-03T06:10:23.676Z,1.50
2018-11-03T06:12:55.127Z,1.40
2018-11-03T06:15:24.146Z,1.40
2018-11-03T06:17:52.915Z,1.27
2018-11-03T06:20:21.763Z,1.70
2018-11-03T06:22:50.802Z,1.67
2018-11-03T06:25:21.644Z,1.20
2018-11-03T06:27:50.477Z,1.40
2018-11-03T06:30:19.282Z,1.53
2018-11-03T06:32:48.155Z,1.67
2018-11-03T06:35:17.004Z,1.50
2018-11-03T06:37:45.960Z,1.60
2018-11-03T06:40:14.831Z,1.50
2018-11-03T06:42:43.674Z,1.50
2018-11-03T06:45:12.529Z,1.43
2018-11-03T06:47:41.863Z,1.53
2018-11-03T06:50:12.402Z,1.40
2018-11-03T06:52:41.219Z,1.87
2018-11-03T06:55:10.096Z,1.60
2018-11-03T06:57:38.891Z,1.63
2018-11-03T07:00:08.611Z,1.50
2018-11-03T07:02:37.557Z,1.50
2018-11-03T07:05:07.037Z,1.60
2018-11-03T07:07:35.791Z,1.70
2018-11-03T07:10:05.090Z,1.87
2018-11-03T07:12:34.835Z,1.57
2018-11-03T07:15:03.477Z,1.70
2018-11-03T07:17:32.299Z,1.20
2018-11-03T07:20:01.158Z,1.60
2018-11-03T07:22:33.590Z,1.70
2018-11-03T07:25:02.394Z,1.50
2018-11-03T07:27:31.222Z,1.50
2018-11-03T07:30:00.065Z,1.53
2018-11-03T07:32:28.891Z,1.47
2018-11-03T07:34:57.829Z,1.60
2018-11-03T07:37:26.747Z,1.60
2018-11-03T07:39:55.595Z,1.67
2018-11-03T07:42:24.439Z,1.60
2018-11-03T07:44:54.963Z,1.43
2018-11-03T07:47:23.822Z,1.50
2018-11-03T07:49:52.647Z,1.50
2018-11-03T07:52:21.496Z,1.50
2018-11-03T07:54:50.397Z,1.30
2018-11-03T07:57:19.260Z,1.70
2018-11-03T07:59:48.083Z,1.30
2018-11-03T08:02:16.910Z,1.60
2018-11-03T08:04:45.741Z,1.60
2018-11-03T08:07:16.083Z,1.80
2018-11-03T08:09:45.382Z,1.60
2018-11-03T08:12:15.799Z,1.53
2018-11-03T08:14:44.622Z,1.80
2018-11-03T08:17:13.451Z,1.57
2018-11-03T08:19:42.315Z,1.60
2018-11-03T08:22:11.722Z,1.50
2018-11-03T08:24:40.588Z,1.63
2018-11-03T08:27:09.423Z,1.50
2018-11-03T08:29:38.264Z,1.50
2018-11-03T08:32:07.099Z,1.40
2018-11-03T08:34:36.107Z,1.33
2018-11-03T08:37:06.391Z,1.40
2018-11-03T08:39:35.242Z,1.53
2018-11-03T08:42:04.080Z,1.50
2018-11-03T08:44:32.931Z,1.73
2018-11-03T08:47:01.803Z,1.60
2018-11-03T08:49:30.707Z,1.50
2018-11-03T08:51:59.585Z,1.60
2018-11-03T08:54:28.475Z,1.30
2018-11-03T08:56:57.279Z,1.53
2018-11-03T08:59:26.814Z,1.63
2018-11-03T09:01:56.284Z,1.50
2018-11-03T09:04:25.186Z,1.60
2018-11-03T09:06:54.093Z,1.30
2018-11-03T09:09:23.073Z,1.60
2018-11-03T09:11:51.915Z,1.80
2018-11-03T09:14:21.745Z,1.40
2018-11-03T09:16:50.516Z,1.60
2018-11-03T09:19:20.809Z,1.70
2018-11-03T09:21:49.686Z,1.90
2018-11-03T09:24:18.410Z,1.87
2018-11-03T09:26:47.261Z,1.60
2018-11-03T09:29:17.752Z,1.70
2018-11-03T09:31:46.610Z,2.00
2018-11-03T09:34:15.438Z,1.70
2018-11-03T09:36:44.284Z,1.90
2018-11-03T09:39:13.236Z,1.70
2018-11-03T09:41:42.056Z,1.80
2018-11-03T09:44:10.894Z,1.53
2018-11-03T09:46:39.784Z,1.67
2018-11-03T09:49:08.619Z,2.10
2018-11-03T09:51:38.156Z,1.43
2018-11-03T09:54:07.540Z,1.93
2018-11-03T09:56:36.414Z,1.67
2018-11-03T09:59:05.378Z,1.70
2018-11-03T10:01:34.213Z,1.80
2018-11-03T10:04:03.132Z,2.00
2018-11-03T10:06:32.100Z,1.60
2018-11-03T10:09:02.451Z,1.70
2018-11-03T10:11:31.296Z,1.80
2018-11-03T10:14:01.479Z,1.60
2018-11-03T10:16:30.291Z,1.60
2018-11-03T10:18:59.133Z,1.80
2018-11-03T10:21:28.012Z,1.53
2018-11-03T10:23:58.683Z,1.70
2018-11-03T10:26:27.515Z,1.77
2018-11-03T10:28:56.356Z,1.70
2018-11-03T10:31:25.210Z,1.60
2018-11-03T10:33:54.043Z,1.80
2018-11-03T10:36:22.990Z,1.60
2018-11-03T10:38:51.824Z,1.90
2018-11-03T10:41:20.702Z,1.60
2018-11-03T10:43:49.500Z,1.80
2018-11-03T10:46:18.466Z,1.90
2018-11-03T10:48:48.567Z,1.73
2018-11-03T10:51:17.424Z,1.63
2018-11-03T10:53:46.415Z,1.50
2018-11-03T10:56:15.146Z,1.83
2018-11-03T10:58:43.983Z,1.50
2018-11-03T11:01:20.224Z,1.90
2018-11-03T11:03:54.431Z,1.50
2018-11-03T11:06:28.783Z,1.77
2018-11-03T11:09:02.950Z,1.60
2018-11-03T11:11:37.391Z,1.73
2018-11-03T11:14:06.608Z,1.50
2018-11-03T11:16:37.300Z,1.60
2018-11-03T11:19:06.072Z,1.87
2018-11-03T11:21:35.005Z,1.50
2018-11-03T11:24:03.942Z,1.93
2018-11-03T11:26:32.682Z,1.63
2018-11-03T11:29:01.796Z,2.10
2018-11-03T11:31:30.740Z,1.77
2018-11-03T11:33:59.526Z,1.70
2018-11-03T11:36:28.359Z,1.90
2018-11-03T11:38:57.747Z,1.60
2018-11-03T11:41:26.878Z,1.70
2018-11-03T11:43:55.719Z,1.60
2018-11-03T11:46:24.589Z,1.60
2018-11-03T11:48:53.422Z,1.73
2018-11-03T11:51:22.278Z,1.73
2018-11-03T11:53:51.207Z,1.90
2018-11-03T11:56:20.040Z,1.60
2018-11-03T11:58:51.532Z,1.90
2018-11-03T12:01:20.364Z,1.43
2018-11-03T12:03:49.213Z,1.70
2018-11-03T12:06:18.099Z,1.97
2018-11-03T12:08:46.985Z,1.63
2018-11-03T12:11:17.417Z,1.80
2018-11-03T12:13:47.071Z,1.50
2018-11-03T12:16:15.998Z,1.87
2018-11-03T12:18:44.727Z,1.70
2018-11-03T12:21:13.570Z,1.70
2018-11-03T12:23:42.392Z,1.67
2018-11-03T12:26:11.357Z,1.40
2018-11-03T12:28:40.317Z,1.67
2018-11-03T12:31:09.153Z,1.50
2018-11-03T12:33:38.156Z,1.57
2018-11-03T12:36:06.984Z,1.73
2018-11-03T12:38:35.995Z,1.77
2018-11-03T12:41:04.861Z,1.67
2018-11-03T12:43:33.672Z,1.43
2018-11-03T12:46:02.505Z,1.73
2018-11-03T12:48:31.330Z,1.97
2018-11-03T12:51:01.313Z,2.00
2018-11-03T12:53:32.278Z,1.60
2018-11-03T12:56:01.075Z,2.10
2018-11-03T12:58:29.922Z,1.73
2018-11-03T13:00:58.748Z,1.83
2018-11-03T13:03:29.650Z,1.70
2018-11-03T13:05:58.469Z,1.93
2018-11-03T13:08:27.302Z,1.50
2018-11-03T13:10:56.210Z,1.80
2018-11-03T13:13:26.314Z,1.40
2018-11-03T13:15:55.160Z,1.50
2018-11-03T13:18:24.015Z,1.73
2018-11-03T13:20:52.880Z,1.70
2018-11-03T13:23:21.720Z,1.60
2018-11-03T13:25:50.647Z,1.87
2018-11-03T13:28:19.995Z,1.70
2018-11-03T13:30:48.827Z,1.70
2018-11-03T13:33:17.651Z,1.70
2018-11-03T13:35:46.531Z,1.53
2018-11-03T13:38:15.872Z,1.50
2018-11-03T13:40:44.728Z,1.70
2018-11-03T13:43:13.566Z,1.70
2018-11-03T13:45:42.411Z,1.80
2018-11-03T13:48:11.245Z,1.47
2018-11-03T13:50:40.823Z,1.77
2018-11-03T13:53:11.351Z,1.70
2018-11-03T13:55:42.497Z,1.83
2018-11-03T13:58:11.323Z,1.40
2018-11-03T14:00:40.163Z,1.80
2018-11-03T14:03:09.032Z,1.70
2018-11-03T14:05:37.868Z,1.50
2018-11-03T14:08:06.786Z,1.60
2018-11-03T14:10:35.630Z,1.53
2018-11-03T14:13:06.164Z,1.60
2018-11-03T14:15:35.052Z,1.70
2018-11-03T14:18:03.832Z,1.40
2018-11-03T14:20:32.683Z,1.47
2018-11-03T14:23:01.521Z,2.00
2018-11-03T14:25:30.406Z,1.77
2018-11-03T14:27:59.265Z,1.53
2018-11-03T14:30:28.090Z,1.80
2018-11-03T14:32:56.931Z,1.47
2018-11-03T14:35:25.977Z,1.60
2018-11-03T14:37:54.874Z,1.80
2018-11-03T14:40:23.723Z,1.60
2018-11-03T14:42:52.582Z,1.60
2018-11-03T14:45:21.501Z,1.63
2018-11-03T14:47:50.243Z,1.60
2018-11-03T14:50:20.778Z,1.77
2018-11-03T14:52:49.606Z,1.60
2018-11-03T14:55:18.443Z,1.63
2018-11-03T14:57:47.312Z,1.80
2018-11-03T15:00:16.539Z,1.60
2018-11-03T15:02:45.499Z,1.60
2018-11-03T15:05:14.339Z,1.50
2018-11-03T15:07:43.175Z,1.70
2018-11-03T15:10:12.811Z,1.90
2018-11-03T15:12:44.278Z,1.60
2018-11-03T15:15:14.535Z,1.53
2018-11-03T15:17:43.879Z,1.50
2018-11-03T15:20:12.899Z,1.40
2018-11-03T15:22:42.487Z,2.17
2018-11-03T15:25:12.401Z,1.50
2018-11-03T15:27:41.831Z,1.70
2018-11-03T15:30:11.819Z,1.60
2018-11-03T15:32:41.122Z,1.43
2018-11-03T15:35:11.385Z,1.37
2018-11-03T15:37:40.226Z,1.47
2018-11-03T15:40:10.723Z,1.57
2018-11-03T15:42:40.641Z,1.60
2018-11-03T15:45:12.126Z,1.50
2018-11-03T15:47:41.274Z,1.50
2018-11-03T15:50:12.199Z,1.50
2018-11-03T15:52:41.265Z,1.40
2018-11-03T15:55:10.100Z,1.40
2018-11-03T15:57:38.951Z,1.30
2018-11-03T16:00:13.756Z,1.10
2018-11-03T16:02:42.659Z,1.50
2018-11-03T16:05:12.267Z,1.30
2018-11-03T16:07:41.241Z,1.57
2018-11-03T16:10:10.916Z,1.37
2018-11-03T16:12:41.579Z,1.70
2018-11-03T16:15:11.521Z,1.43
2018-11-03T16:17:41.118Z,1.50
2018-11-03T16:20:11.191Z,1.50
2018-11-03T16:22:40.089Z,1.50
2018-11-03T16:25:09.439Z,1.63
2018-11-03T16:27:38.951Z,1.60
2018-11-03T16:30:10.515Z,1.60
2018-11-03T16:32:39.567Z,1.73
2018-11-03T16:35:09.182Z,1.70
2018-11-03T16:37:40.319Z,1.57
2018-11-03T16:40:10.763Z,1.37
2018-11-03T16:42:41.783Z,1.50
2018-11-03T16:45:12.231Z,1.47
2018-11-03T16:47:41.463Z,1.60
2018-11-03T16:50:11.732Z,1.73
2018-11-03T16:52:40.862Z,1.50
2018-11-03T16:55:10.809Z,1.60
2018-11-03T16:57:39.783Z,1.67
2018-11-03T17:00:12.141Z,1.60
2018-11-03T17:02:41.457Z,1.47
2018-11-03T17:05:11.777Z,1.30
2018-11-03T17:07:40.615Z,1.37
2018-11-03T17:10:12.104Z,1.50
2018-11-03T17:12:43.921Z,1.60
2018-11-03T17:15:13.050Z,1.50
2018-11-03T17:17:41.927Z,1.80
2018-11-03T17:20:11.123Z,1.60
2018-11-03T17:22:39.979Z,1.60
2018-11-03T17:25:10.128Z,1.53
2018-11-03T17:27:38.950Z,1.53
2018-11-03T17:30:10.528Z,1.60
2018-11-03T17:32:39.355Z,1.50
2018-11-03T17:35:08.192Z,1.63
2018-11-03T17:37:37.051Z,1.80
2018-11-03T17:40:07.288Z,1.80
2018-11-03T17:42:36.269Z,1.60
2018-11-03T17:45:05.980Z,1.50
2018-11-03T17:47:34.816Z,1.33
2018-11-03T17:50:03.862Z,1.63
2018-11-03T17:52:33.045Z,1.70
2018-11-03T17:55:02.271Z,1.67
2018-11-03T17:57:31.112Z,1.47
2018-11-03T18:00:00.119Z,1.87
2018-11-03T18:02:28.864Z,1.57
2018-11-03T18:04:57.693Z,1.50
2018-11-03T18:07:26.787Z,1.80
2018-11-03T18:09:55.704Z,1.40
2018-11-03T18:12:26.644Z,1.80
2018-11-03T18:14:55.523Z,1.57
2018-11-03T18:17:24.348Z,1.60
2018-11-03T18:19:53.295Z,1.53
2018-11-03T18:22:23.395Z,1.80
2018-11-03T18:24:54.331Z,1.50
2018-11-03T18:27:23.159Z,1.63
2018-11-03T18:29:52.170Z,1.70
2018-11-03T18:32:21.038Z,1.60
2018-11-03T18:34:49.924Z,1.80
2018-11-03T18:37:18.855Z,1.50
2018-11-03T18:39:47.707Z,1.80
2018-11-03T18:42:16.544Z,1.77
2018-11-03T18:44:45.422Z,2.43
2018-11-03T18:47:14.584Z,1.90
2018-11-03T18:49:45.121Z,1.50
2018-11-03T18:52:13.950Z,1.80
2018-11-03T18:54:42.816Z,1.70
2018-11-03T18:57:11.631Z,1.57
2018-11-03T18:59:40.469Z,1.67
2018-11-03T19:02:09.394Z,2.00
2018-11-03T19:04:38.234Z,1.60
2018-11-03T19:07:07.065Z,1.70
2018-11-03T19:09:37.047Z,1.80
2018-11-03T19:12:06.963Z,1.80
2018-11-03T19:14:36.744Z,1.50
2018-11-03T19:17:06.863Z,2.00
2018-11-03T19:19:35.605Z,1.57
2018-11-03T19:22:04.451Z,1.73
2018-11-03T19:24:33.291Z,1.80
2018-11-03T19:27:02.121Z,1.70
2018-11-03T19:29:31.298Z,2.00
2018-11-03T19:32:00.161Z,1.70
2018-11-03T19:34:28.997Z,1.83
2018-11-03T19:36:57.831Z,1.90
2018-11-03T19:39:27.014Z,2.00
2018-11-03T19:41:56.104Z,2.00
2018-11-03T19:44:24.923Z,1.93
2018-11-03T19:46:53.818Z,2.00
2018-11-03T19:49:22.678Z,2.30
2018-11-03T19:51:51.583Z,1.80
2018-11-03T19:54:20.715Z,1.90
2018-11-03T19:56:49.579Z,1.77
2018-11-03T19:59:18.420Z,2.17
2018-11-03T20:01:47.620Z,1.80
2018-11-03T20:04:16.455Z,1.97
2018-11-03T20:06:47.478Z,2.10
2018-11-03T20:09:17.582Z,2.20
2018-11-03T20:11:46.490Z,2.03
2018-11-03T20:14:16.162Z,2.10
2018-11-03T20:16:44.995Z,1.83
2018-11-03T20:19:13.824Z,2.23
2018-11-03T20:21:42.655Z,2.20
2018-11-03T20:24:11.499Z,1.90
2018-11-03T20:26:40.407Z,2.17
2018-11-03T20:29:09.262Z,2.10
2018-11-03T20:31:38.177Z,2.33
2018-11-03T20:34:06.935Z,1.87
2018-11-03T20:36:35.793Z,2.20
2018-11-03T20:39:07.638Z,2.33
2018-11-03T20:41:36.469Z,2.17
2018-11-03T20:44:05.648Z,2.10
2018-11-03T20:46:34.647Z,2.00
2018-11-03T20:49:03.480Z,2.10
2018-11-03T20:51:32.818Z,2.10
2018-11-03T20:54:01.768Z,2.17
2018-11-03T20:56:30.492Z,2.10
2018-11-03T20:58:59.335Z,2.17
2018-11-03T21:01:28.183Z,2.00
2018-11-03T21:04:02.603Z,2.43
2018-11-03T21:06:31.606Z,2.10
2018-11-03T21:09:00.408Z,2.27
2018-11-03T21:11:29.255Z,2.13
2018-11-03T21:13:58.495Z,2.27
2018-11-03T21:16:27.380Z,2.17
2018-11-03T21:18:56.158Z,2.10
2018-11-03T21:21:24.995Z,2.10
2018-11-03T21:23:53.855Z,2.30
2018-11-03T21:26:22.765Z,1.77
2018-11-03T21:28:51.921Z,2.50
2018-11-03T21:31:20.746Z,2.00
2018-11-03T21:33:49.601Z,2.30
2018-11-03T21:36:18.449Z,2.23
2018-11-03T21:38:48.505Z,2.10
2018-11-03T21:41:17.232Z,2.20
2018-11-03T21:43:46.078Z,2.00
2018-11-03T21:46:15.069Z,2.10
2018-11-03T21:48:43.822Z,2.33
2018-11-03T21:51:13.786Z,2.20
2018-11-03T21:53:42.675Z,2.57
2018-11-03T21:56:14.016Z,2.40
2018-11-03T21:58:42.844Z,2.20
2018-11-03T22:01:13.640Z,2.10
2018-11-03T22:03:42.467Z,2.23
2018-11-03T22:06:11.321Z,2.50
2018-11-03T22:08:40.216Z,2.37
2018-11-03T22:11:09.011Z,2.30
2018-11-03T22:13:38.533Z,2.23
2018-11-03T22:16:07.346Z,2.07
2018-11-03T22:18:36.200Z,2.30
2018-11-03T22:21:05.257Z,2.30
2018-11-03T22:23:34.097Z,2.50
2018-11-03T22:26:03.006Z,2.63
2018-11-03T22:28:31.839Z,2.47
2018-11-03T22:31:00.676Z,2.30
2018-11-03T22:33:29.508Z,2.47
2018-11-03T22:35:58.363Z,2.37
2018-11-03T22:38:27.267Z,2.53
2018-11-03T22:40:56.105Z,2.40
2018-11-03T22:43:24.960Z,2.50
2018-11-03T22:45:53.948Z,2.37
2018-11-03T22:48:22.779Z,2.43
2018-11-03T22:50:53.544Z,2.23
2018-11-03T22:53:22.407Z,2.60
2018-11-03T22:55:51.257Z,2.50
2018-11-03T22:58:20.196Z,2.40
2018-11-03T23:00:54.358Z,2.60
2018-11-03T23:03:23.287Z,2.50
2018-11-03T23:05:52.184Z,2.70
2018-11-03T23:08:21.011Z,2.40
2018-11-03T23:10:50.126Z,2.30
2018-11-03T23:13:21.216Z,2.40
2018-11-03T23:15:49.986Z,2.60
2018-11-03T23:18:18.817Z,2.60
2018-11-03T23:20:47.695Z,2.37
2018-11-03T23:23:16.532Z,2.57
2018-11-03T23:25:45.427Z,2.60
2018-11-03T23:28:14.322Z,2.43
2018-11-03T23:30:43.163Z,2.53
2018-11-03T23:33:12.017Z,2.67
2018-11-03T23:35:40.863Z,2.40
2018-11-03T23:38:10.158Z,2.90
2018-11-03T23:40:38.962Z,2.63
2018-11-03T23:43:09.399Z,2.40
2018-11-03T23:45:38.226Z,2.53
2018-11-03T23:48:07.067Z,2.77
2018-11-03T23:50:35.923Z,2.33
2018-11-03T23:53:04.959Z,2.60
2018-11-03T23:55:33.731Z,2.60
2018-11-03T23:58:02.589Z,2.70
